Time;durP1;ratioP1;P1;durP2;ratioP2;P2;SDS_P1;SDS_P2;PMS_P1;PMS_P2;Temp;Humidity;BMP_temperature;BMP_pressure;BME280_temperature;BME280_humidity;BME280_pressure;Samples;Min_cycle;Max_cycle;Signal;HPM_P1;HPM_P2
2024/01/20 00:00:27;;;;;;;24.13;14.73;;;;;;;-8.35;83.60;101580.47;3173938;22;20268;-78
2024/01/20 00:01:41;;;;;;;29.10;16.80;;;;;;;-8.37;83.72;101587.06;3175255;22;20019;-78
2024/01/20 00:02:55;;;;;;;28.63;15.63;;;;;;;-8.38;83.68;101590.38;3174232;22;20724;-78
2024/01/20 00:04:08;;;;;;;30.77;16.43;;;;;;;-8.42;83.63;101583.28;3174832;22;20023;-78
2024/01/20 00:05:23;;;;;;;31.67;14.83;;;;;;;-8.44;83.81;101594.06;3174709;22;20271;-78
2024/01/20 00:06:36;;;;;;;26.73;16.33;;;;;;;-8.47;83.70;101592.16;3174144;22;20026;-78
2024/01/20 00:07:51;;;;;;;26.20;16.93;;;;;;;-8.51;83.79;101587.63;3175042;22;20261;-78
2024/01/20 00:09:04;;;;;;;29.37;17.77;;;;;;;-8.51;83.65;101586.75;3174531;22;20019;-78
2024/01/20 00:10:18;;;;;;;32.67;18.20;;;;;;;-8.51;83.44;101591.81;3174161;22;20756;-77
2024/01/20 00:11:32;;;;;;;27.37;15.33;;;;;;;-8.52;83.42;101588.34;3173053;22;20019;-78
2024/01/20 00:12:46;;;;;;;26.83;16.60;;;;;;;-8.52;83.59;101585.84;3174073;22;20265;-78
2024/01/20 00:14:01;;;;;;;29.00;17.50;;;;;;;-8.52;83.77;101598.50;3174227;22;20024;-78
2024/01/20 00:15:15;;;;;;;41.40;17.87;;;;;;;-8.53;83.26;101604.31;3173310;22;20250;-78
2024/01/20 00:16:29;;;;;;;26.60;15.97;;;;;;;-8.53;83.71;101609.38;3173893;22;20260;-77
2024/01/20 00:17:43;;;;;;;29.87;20.27;;;;;;;-8.53;83.44;101606.84;3174333;22;20264;-78
2024/01/20 00:18:57;;;;;;;31.43;15.37;;;;;;;-8.50;83.44;101616.34;3173664;22;20019;-78
2024/01/20 00:20:12;;;;;;;31.10;17.17;;;;;;;-8.49;83.69;101611.41;3173558;22;20261;-78
2024/01/20 00:21:25;;;;;;;29.00;16.40;;;;;;;-8.51;83.53;101612.94;3173629;22;20085;-78
2024/01/20 00:22:39;;;;;;;25.73;16.87;;;;;;;-8.52;83.65;101611.16;3173074;22;20265;-78
2024/01/20 00:23:53;;;;;;;32.37;17.77;;;;;;;-8.51;83.47;101612.94;3173719;22;20023;-78
2024/01/20 00:25:08;;;;;;;32.83;16.93;;;;;;;-8.53;83.30;101609.38;3173311;22;20727;-78
2024/01/20 00:26:22;;;;;;;28.13;17.67;;;;;;;-8.51;83.59;101610.41;3174093;22;20072;-78
2024/01/20 00:27:36;;;;;;;30.37;18.07;;;;;;;-8.49;83.54;101611.41;3172891;22;20311;-78
2024/01/20 00:28:50;;;;;;;29.90;19.43;;;;;;;-8.50;83.59;101613.81;3173670;22;20031;-78
2024/01/20 00:30:06;;;;;;;23.17;15.07;;;;;;;-8.53;83.58;101611.91;3173180;22;20261;-78
2024/01/20 00:31:20;;;;;;;29.70;16.30;;;;;;;-8.56;83.70;101607.47;3172389;22;20023;-78
2024/01/20 00:32:34;;;;;;;30.07;17.80;;;;;;;-8.58;83.56;101603.06;3173931;22;20265;-78
2024/01/20 00:33:48;;;;;;;32.70;18.67;;;;;;;-8.58;83.58;101605.59;3173422;22;20023;-78
2024/01/20 00:35:03;;;;;;;24.57;15.33;;;;;;;-8.59;83.44;101609.75;3172809;22;20252;-78
2024/01/20 00:36:17;;;;;;;30.90;17.77;;;;;;;-8.60;83.49;101607.09;3178562;22;20022;-78
2024/01/20 00:37:31;;;;;;;27.13;16.00;;;;;;;-8.61;83.36;101612.94;3173171;22;20724;-77
2024/01/20 00:38:45;;;;;;;31.57;18.60;;;;;;;-8.64;83.68;101616.09;3172777;22;20019;-78
2024/01/20 00:39:59;;;;;;;33.37;17.23;;;;;;;-8.64;83.27;101618.63;3173506;22;20265;-78
2024/01/20 00:41:13;;;;;;;29.93;16.60;;;;;;;-8.65;83.49;101608.34;3173395;22;20015;-78
2024/01/20 00:42:28;;;;;;;27.87;17.83;;;;;;;-8.64;83.15;101615.22;3172783;22;20280;-78
2024/01/20 00:43:41;;;;;;;34.53;18.53;;;;;;;-8.65;83.34;101614.28;3172991;22;20019;-78
2024/01/20 00:44:55;;;;;;;32.20;17.23;;;;;;;-8.67;83.28;101618.38;3174080;22;20565;-78
2024/01/20 00:46:10;;;;;;;29.97;15.00;;;;;;;-8.69;83.37;101611.41;3174081;22;20032;-78
2024/01/20 00:47:25;;;;;;;37.00;17.90;;;;;;;-8.69;83.37;101621.53;3172484;22;20303;-78
2024/01/20 00:48:38;;;;;;;27.57;17.67;;;;;;;-8.72;83.40;101612.03;3174436;22;20258;-78
2024/01/20 00:49:52;;;;;;;26.60;17.10;;;;;;;-8.74;83.20;101617.72;3172805;22;20266;-77
2024/01/20 00:51:06;;;;;;;31.27;17.67;;;;;;;-8.77;83.37;101618.34;3173087;22;20088;-78
2024/01/20 00:52:20;;;;;;;26.67;16.77;;;;;;;-8.81;83.34;101617.19;3173995;22;20291;-78
2024/01/20 00:53:34;;;;;;;28.30;16.87;;;;;;;-8.84;83.22;101611.88;3174128;22;20034;-78
2024/01/20 00:54:48;;;;;;;32.50;17.27;;;;;;;-8.87;83.26;101625.91;3173391;22;20644;-78
2024/01/20 00:56:02;;;;;;;31.10;17.13;;;;;;;-8.91;83.30;101621.34;3173531;22;20556;-78
2024/01/20 00:57:16;;;;;;;23.63;15.33;;;;;;;-8.94;83.16;101623.63;3172515;22;20261;-77
2024/01/20 00:58:30;;;;;;;30.50;16.27;;;;;;;-8.99;83.25;101630.81;3176200;22;20026;-78
2024/01/20 00:59:45;;;;;;;35.70;17.53;;;;;;;-9.04;83.30;101627.00;3172010;22;20797;-78
2024/01/20 01:00:59;;;;;;;28.47;17.07;;;;;;;-9.08;83.01;101643.56;3174042;22;20068;-78
2024/01/20 01:02:16;;;;;;;27.87;18.37;;;;;;;-9.11;83.28;101639.88;3174163;22;20265;-78
2024/01/20 01:03:30;;;;;;;32.53;17.70;;;;;;;-9.14;83.11;101637.09;3173782;22;20019;-78
2024/01/20 01:04:44;;;;;;;29.50;16.53;;;;;;;-9.18;83.17;101630.00;3174528;22;20778;-78
2024/01/20 01:05:58;;;;;;;29.33;15.23;;;;;;;-9.21;83.16;101643.28;3173260;22;20024;-78
2024/01/20 01:07:12;;;;;;;39.50;18.83;;;;;;;-9.24;82.88;101631.25;3173197;22;20245;-78
2024/01/20 01:08:25;;;;;;;33.93;17.63;;;;;;;-9.24;83.05;101631.25;3173732;22;20358;-78
2024/01/20 01:09:40;;;;;;;32.70;17.07;;;;;;;-9.22;82.95;101632.25;3174223;22;20261;-78
2024/01/20 01:10:54;;;;;;;27.00;16.53;;;;;;;-9.18;83.13;101633.44;3173184;22;20021;-78
2024/01/20 01:12:08;;;;;;;32.27;16.87;;;;;;;-9.15;83.41;101637.84;3173718;22;20257;-78
2024/01/20 01:13:22;;;;;;;29.90;17.90;;;;;;;-9.12;82.96;101643.16;3173819;22;20261;-78
2024/01/20 01:14:36;;;;;;;32.07;17.50;;;;;;;-9.13;82.90;101641.41;3173901;22;20288;-78
2024/01/20 01:15:50;;;;;;;27.73;15.83;;;;;;;-9.16;82.79;101648.69;3173866;22;20063;-78
2024/01/20 01:17:04;;;;;;;31.00;16.40;;;;;;;-9.20;83.10;101649.22;3173888;22;20268;-78
2024/01/20 01:18:19;;;;;;;31.87;15.77;;;;;;;-9.23;82.95;101644.78;3174601;22;20030;-78
2024/01/20 01:19:33;;;;;;;29.80;18.07;;;;;;;-9.26;83.11;101647.94;3173206;22;20253;-78
2024/01/20 01:20:47;;;;;;;25.90;15.20;;;;;;;-9.26;82.77;101650.47;3174160;22;20254;-78
2024/01/20 01:22:02;;;;;;;22.70;15.93;;;;;;;-9.25;83.10;101651.34;3174654;22;20280;-78
2024/01/20 01:23:15;;;;;;;25.97;16.10;;;;;;;-9.26;83.18;101650.47;3173955;22;20858;-78
2024/01/20 01:24:30;;;;;;;28.37;16.73;;;;;;;-9.26;83.17;101645.41;3174284;22;20262;-78
2024/01/20 01:25:43;;;;;;;31.90;17.83;;;;;;;-9.29;82.78;101645.16;3174121;22;20027;-78
2024/01/20 01:26:57;;;;;;;30.60;15.67;;;;;;;-9.30;82.79;101645.00;3173847;22;20721;-78
2024/01/20 01:28:11;;;;;;;32.20;17.33;;;;;;;-9.33;82.66;101643.09;3174428;22;20023;-77
2024/01/20 01:29:25;;;;;;;29.33;16.57;;;;;;;-9.35;83.14;101651.28;3174736;22;20276;-78
2024/01/20 01:30:39;;;;;;;28.53;16.07;;;;;;;-9.35;82.73;101643.72;3173596;22;20026;-78
2024/01/20 01:31:53;;;;;;;29.60;17.23;;;;;;;-9.34;82.83;101651.44;3174398;22;20262;-78
2024/01/20 01:33:06;;;;;;;32.93;17.90;;;;;;;-9.31;82.99;101646.66;3174503;22;20023;-78
2024/01/20 01:34:22;;;;;;;29.53;18.17;;;;;;;-9.31;82.97;101646.66;3173698;22;20744;-78
2024/01/20 01:35:36;;;;;;;30.07;17.77;;;;;;;-9.32;83.05;101639.84;3172037;22;20022;-77
2024/01/20 01:36:50;;;;;;;32.07;16.33;;;;;;;-9.31;83.26;101651.69;3172948;22;20596;-78
2024/01/20 01:38:03;;;;;;;28.27;18.13;;;;;;;-9.32;82.76;101646.50;3173206;22;20101;-78
2024/01/20 01:39:18;;;;;;;29.57;15.17;;;;;;;-9.35;83.13;101647.13;3173407;22;20813;-78
2024/01/20 01:40:32;;;;;;;25.80;16.63;;;;;;;-9.34;82.99;101646.38;3172965;22;20027;-78
2024/01/20 01:41:47;;;;;;;28.97;16.63;;;;;;;-9.32;82.82;101644.88;3173283;22;20261;-77
2024/01/20 01:43:00;;;;;;;33.53;18.07;;;;;;;-9.33;82.77;101649.78;3172660;22;20015;-78
2024/01/20 01:44:15;;;;;;;32.57;19.47;;;;;;;-9.34;83.00;101648.91;3173466;22;20268;-78
2024/01/20 01:45:28;;;;;;;28.27;15.83;;;;;;;-9.34;83.00;101648.03;3173746;22;20023;-78
2024/01/20 01:46:43;;;;;;;23.17;15.07;;;;;;;-9.35;82.96;101646.25;3172308;22;20268;-78
2024/01/20 01:47:57;;;;;;;35.43;17.50;;;;;;;-9.36;82.75;101652.06;3173391;22;20023;-78
2024/01/20 01:49:11;;;;;;;32.07;18.37;;;;;;;-9.39;82.78;101650.16;3173815;22;20298;-78
2024/01/20 01:50:27;;;;;;;31.63;19.70;;;;;;;-9.40;82.76;101655.06;3173690;22;20023;-79
2024/01/20 01:51:42;;;;;;;35.57;17.60;;;;;;;-9.40;82.85;101650.00;3173500;22;20302;-78
2024/01/20 01:52:55;;;;;;;32.43;19.00;;;;;;;-9.40;83.12;101657.59;3174416;22;20253;-78
2024/01/20 01:54:10;;;;;;;42.83;19.60;;;;;;;-9.39;82.69;101664.44;3174214;22;20267;-78
2024/01/20 01:55:24;;;;;;;37.00;20.10;;;;;;;-9.38;82.74;101664.56;3172695;22;20038;-78
2024/01/20 01:56:40;;;;;;;36.03;18.73;;;;;;;-9.37;82.77;101658.75;3172758;22;20588;-77
2024/01/20 01:57:55;;;;;;;27.03;17.93;;;;;;;-9.38;82.96;101662.03;3173382;22;20509;-78
2024/01/20 01:59:10;;;;;;;37.57;18.40;;;;;;;-9.37;83.06;101655.31;3173135;22;20246;-78
2024/01/20 02:00:23;;;;;;;26.70;17.90;;;;;;;-9.37;82.73;101666.34;3173046;22;20253;-78
2024/01/20 02:01:38;;;;;;;28.77;16.33;;;;;;;-9.39;82.84;101661.91;3172373;22;20608;-77
2024/01/20 02:02:51;;;;;;;37.23;21.50;;;;;;;-9.41;82.94;101668.47;3172404;22;20757;-78
2024/01/20 02:04:05;;;;;;;37.63;19.93;;;;;;;-9.44;82.63;101671.63;3172288;22;20269;-77
2024/01/20 02:05:19;;;;;;;29.57;16.57;;;;;;;-9.47;82.54;101672.22;3172719;22;20019;-78
2024/01/20 02:06:35;;;;;;;32.40;17.87;;;;;;;-9.48;82.74;101677.13;3173157;22;20268;-78
2024/01/20 02:07:48;;;;;;;36.80;18.67;;;;;;;-9.51;82.55;101677.75;3173472;22;20034;-78
2024/01/20 02:09:03;;;;;;;39.10;19.10;;;;;;;-9.49;82.95;101680.44;3174295;22;20272;-78
2024/01/20 02:10:17;;;;;;;40.73;22.40;;;;;;;-9.47;82.66;101678.94;3173492;22;20034;-78
2024/01/20 02:11:32;;;;;;;47.17;23.53;;;;;;;-9.46;83.01;101680.69;3174614;22;20248;-78
2024/01/20 02:12:45;;;;;;;42.83;21.80;;;;;;;-9.44;82.55;101676.66;3174664;22;20133;-77
2024/01/20 02:14:00;;;;;;;45.70;20.87;;;;;;;-9.44;82.97;101680.06;3174047;22;20261;-78
2024/01/20 02:15:13;;;;;;;38.70;21.20;;;;;;;-9.47;83.04;101686.50;3172055;22;20401;-78
2024/01/20 02:16:28;;;;;;;43.73;21.67;;;;;;;-9.49;82.95;101681.31;3172782;22;20261;-77
2024/01/20 02:17:49;;;;;;;47.10;23.30;;;;;;;-9.49;82.57;101688.91;3173720;22;20465;-77
2024/01/20 02:19:04;;;;;;;44.43;21.53;;;;;;;-9.48;82.51;101687.25;3172334;22;20250;-77
2024/01/20 02:20:17;;;;;;;33.80;20.83;;;;;;;-9.50;82.79;101684.59;3173314;22;20588;-77
2024/01/20 02:21:32;;;;;;;36.73;21.57;;;;;;;-9.50;82.51;101686.22;3174225;22;20267;-78
2024/01/20 02:22:47;;;;;;;37.23;19.10;;;;;;;-9.51;82.94;101686.97;3174869;22;20524;-78
2024/01/20 02:24:02;;;;;;;46.03;23.83;;;;;;;-9.53;82.87;101688.47;3175778;22;20664;-78
2024/01/20 02:25:16;;;;;;;41.97;26.03;;;;;;;-9.55;82.91;101684.91;3176480;22;20260;-78
2024/01/20 02:26:30;;;;;;;37.77;21.00;;;;;;;-9.57;82.88;101688.97;3174848;22;20265;-77
2024/01/20 02:27:43;;;;;;;43.77;22.23;;;;;;;-9.59;82.59;101685.44;3174824;22;20031;-77
2024/01/20 02:28:58;;;;;;;56.83;22.67;;;;;;;-9.63;82.88;101688.41;3174999;22;20584;-77
2024/01/20 02:30:11;;;;;;;69.47;25.63;;;;;;;-9.67;82.85;101698.25;3174657;22;20027;-77
2024/01/20 02:31:26;;;;;;;34.97;20.70;;;;;;;-9.64;82.37;101691.72;3174027;22;20241;-77
2024/01/20 02:32:39;;;;;;;33.77;21.40;;;;;;;-9.64;82.72;101694.22;3174728;22;20015;-77
2024/01/20 02:33:54;;;;;;;36.67;17.83;;;;;;;-9.66;82.52;101689.91;3175662;22;20261;-77
2024/01/20 02:35:08;;;;;;;35.53;22.50;;;;;;;-9.66;82.68;101681.47;3175167;22;20074;-77
2024/01/20 02:36:23;;;;;;;49.97;23.47;;;;;;;-9.61;83.11;101682.75;3174543;22;20262;-77
2024/01/20 02:37:36;;;;;;;39.50;21.50;;;;;;;-9.59;83.28;101682.91;3174541;22;20269;-77
2024/01/20 02:38:52;;;;;;;39.33;20.90;;;;;;;-9.57;82.79;101683.94;3173983;22;20312;-77
2024/01/20 02:40:07;;;;;;;46.60;23.20;;;;;;;-9.55;82.78;101685.84;3174483;22;20023;-77
2024/01/20 02:41:21;;;;;;;35.27;22.07;;;;;;;-9.53;82.88;101679.25;3174244;22;20266;-76
2024/01/20 02:42:35;;;;;;;43.90;22.63;;;;;;;-9.49;83.32;101685.47;3173804;22;20257;-77
2024/01/20 02:43:49;;;;;;;36.03;19.97;;;;;;;-9.49;82.94;101680.44;3174087;22;20268;-77
2024/01/20 02:45:04;;;;;;;39.37;20.33;;;;;;;-9.50;83.28;101677.03;3174640;22;20445;-77
2024/01/20 02:46:18;;;;;;;75.03;24.03;;;;;;;-9.45;83.31;101678.31;3175866;22;20266;-77
2024/01/20 02:47:31;;;;;;;34.83;22.67;;;;;;;-9.41;83.26;101676.94;3175431;22;20250;-77
2024/01/20 02:48:46;;;;;;;34.03;21.87;;;;;;;-9.38;83.23;101678.84;3176996;22;20261;-77
2024/01/20 02:49:59;;;;;;;70.23;26.53;;;;;;;-9.38;83.54;101677.19;3176893;22;20030;-77
2024/01/20 02:51:14;;;;;;;32.60;19.13;;;;;;;-9.39;83.23;101675.44;3176206;22;20252;-77
2024/01/20 02:52:27;;;;;;;41.63;21.70;;;;;;;-9.39;83.27;101675.44;3174830;22;20023;-76
2024/01/20 02:53:42;;;;;;;39.50;23.70;;;;;;;-9.42;82.73;101680.22;3174224;22;20270;-77
2024/01/20 02:54:56;;;;;;;41.77;22.60;;;;;;;-9.48;82.78;101674.59;3173451;22;20481;-77
2024/01/20 02:56:12;;;;;;;52.73;26.67;;;;;;;-9.54;82.99;101674.97;3174092;22;20268;-77
2024/01/20 02:57:25;;;;;;;128.70;32.70;;;;;;;-9.57;83.13;101681.41;3174312;22;20254;-77
2024/01/20 02:58:40;;;;;;;47.37;23.60;;;;;;;-9.59;82.65;101676.19;3173774;22;20637;-77
2024/01/20 02:59:53;;;;;;;45.13;24.47;;;;;;;-9.60;82.74;101671.00;3174143;22;20023;-77
2024/01/20 03:01:08;;;;;;;44.43;25.80;;;;;;;-9.60;83.16;101671.91;3174296;22;20564;-76
2024/01/20 03:02:21;;;;;;;50.50;23.07;;;;;;;-9.59;82.86;101668.63;3174603;22;20027;-77
2024/01/20 03:03:35;;;;;;;40.70;21.03;;;;;;;-9.57;83.27;101671.28;3173613;22;20249;-77
2024/01/20 03:04:49;;;;;;;35.97;21.10;;;;;;;-9.60;83.18;101665.94;3174260;22;20038;-77
2024/01/20 03:06:04;;;;;;;36.30;20.67;;;;;;;-9.62;82.82;101673.41;3175857;22;20271;-79
2024/01/20 03:07:17;;;;;;;38.47;22.07;;;;;;;-9.61;82.89;101676.81;3176493;22;20019;-79
2024/01/20 03:08:32;;;;;;;42.70;24.03;;;;;;;-9.60;82.98;101676.06;3176917;22;20261;-79
2024/01/20 03:09:45;;;;;;;41.03;20.43;;;;;;;-9.60;82.70;101681.09;3177416;22;20030;-79
2024/01/20 03:11:01;;;;;;;47.97;22.87;;;;;;;-9.61;83.06;101681.88;3176568;22;20252;-79
2024/01/20 03:12:14;;;;;;;38.97;20.90;;;;;;;-9.63;82.44;101681.72;3176818;22;20026;-79
2024/01/20 03:13:29;;;;;;;41.30;22.47;;;;;;;-9.64;82.83;101679.97;3174779;22;20328;-79
2024/01/20 03:14:42;;;;;;;43.77;22.37;;;;;;;-9.63;82.72;101680.84;3174125;22;20033;-78
2024/01/20 03:15:56;;;;;;;38.97;21.33;;;;;;;-9.63;82.57;101681.72;3174786;22;20623;-79
2024/01/20 03:17:10;;;;;;;38.90;19.97;;;;;;;-9.66;82.64;101684.88;3174529;22;20023;-79
2024/01/20 03:18:24;;;;;;;34.10;18.50;;;;;;;-9.68;82.88;101678.81;3174882;22;20257;-79
2024/01/20 03:19:38;;;;;;;32.10;19.30;;;;;;;-9.70;82.45;101677.78;3174258;22;20019;-78
2024/01/20 03:20:52;;;;;;;33.03;22.17;;;;;;;-9.73;82.28;101684.19;3175916;22;20266;-79
2024/01/20 03:22:06;;;;;;;32.73;18.07;;;;;;;-9.77;82.36;101687.22;3176955;22;20015;-80
2024/01/20 03:23:20;;;;;;;29.87;21.00;;;;;;;-9.80;82.54;101680.25;3175412;22;20256;-79
2024/01/20 03:24:33;;;;;;;27.97;18.87;;;;;;;-9.82;82.72;101688.44;3175979;22;20023;-79
2024/01/20 03:25:48;;;;;;;33.33;18.57;;;;;;;-9.88;82.32;101681.19;3175109;22;20260;-79
2024/01/20 03:27:03;;;;;;;39.90;20.07;;;;;;;-9.91;82.22;101688.50;3173967;22;20041;-79
2024/01/20 03:28:17;;;;;;;41.67;21.67;;;;;;;-9.98;nan;101691.22;3175611;22;20292;-79
2024/01/20 03:29:30;;;;;;;33.60;18.70;;;;;;;-10.04;81.91;101695.72;3174878;22;20732;-78
2024/01/20 03:30:45;;;;;;;31.93;19.10;;;;;;;-10.10;82.31;101694.41;3173883;22;20267;-79
2024/01/20 03:31:58;;;;;;;35.30;20.10;;;;;;;-10.14;81.96;101699.94;3176066;22;20026;-79
2024/01/20 03:33:13;;;;;;;33.67;17.47;;;;;;;-10.14;82.17;101702.47;3174775;22;20261;-79
2024/01/20 03:34:26;;;;;;;33.00;20.83;;;;;;;-10.15;82.66;101704.84;3174337;22;20054;-79
2024/01/20 03:35:41;;;;;;;35.90;18.70;;;;;;;-10.14;82.46;101699.06;3174929;22;20808;-79
2024/01/20 03:36:54;;;;;;;37.97;22.93;;;;;;;-10.13;82.08;101705.88;3176081;22;20023;-79
2024/01/20 03:38:08;;;;;;;40.53;20.20;;;;;;;-10.16;82.06;101698.91;3178423;22;20262;-80
2024/01/20 03:39:22;;;;;;;30.77;17.13;;;;;;;-10.18;82.64;101697.00;3177396;22;20019;-80
2024/01/20 03:40:36;;;;;;;30.20;18.23;;;;;;;-10.19;82.40;101698.63;3177650;22;20261;-80
2024/01/20 03:41:50;;;;;;;28.17;19.40;;;;;;;-10.19;82.62;101702.81;3177470;22;20023;-80
2024/01/20 03:43:05;;;;;;;32.63;18.57;;;;;;;-10.22;82.03;101708.47;3177514;22;20025;-80
2024/01/20 03:44:19;;;;;;;34.37;18.47;;;;;;;-10.25;82.28;101713.19;3177355;22;20030;-80
2024/01/20 03:45:33;;;;;;;37.47;19.33;;;;;;;-10.22;82.04;101712.59;3178507;22;20265;-80
2024/01/20 03:46:47;;;;;;;35.50;16.57;;;;;;;-10.22;82.38;101711.00;3178145;22;20477;-80
2024/01/20 03:48:01;;;;;;;33.63;18.90;;;;;;;-10.23;82.26;101715.88;3177481;22;20262;-79
2024/01/20 03:49:14;;;;;;;28.87;18.90;;;;;;;-10.27;81.92;101713.84;3177605;22;20030;-80
2024/01/20 03:50:29;;;;;;;31.13;19.37;;;;;;;-10.30;81.71;101711.94;3177554;22;20592;-80
2024/01/20 03:51:42;;;;;;;34.57;19.43;;;;;;;-10.34;82.14;101712.41;3177170;22;20023;-80
2024/01/20 03:52:57;;;;;;;29.10;17.97;;;;;;;-10.36;82.20;101716.44;3177851;22;20268;-80
2024/01/20 03:54:10;;;;;;;30.27;20.10;;;;;;;-10.39;82.07;101716.16;3178382;22;20350;-80
2024/01/20 03:55:25;;;;;;;31.33;18.83;;;;;;;-10.42;82.01;101728.50;3178019;22;20250;-80
2024/01/20 03:56:41;;;;;;;28.80;18.05;;;;;;;-10.48;81.87;101721.25;3177394;22;20015;-80
2024/01/20 03:57:56;;;;;;;22.83;15.52;;;;;;;-10.50;82.14;101724.38;3178698;22;20031;-80
2024/01/20 03:59:11;;;;;;;26.55;15.43;;;;;;;-10.55;81.77;101727.34;3177650;22;20485;-79
2024/01/20 04:00:25;;;;;;;46.00;18.88;;;;;;;-10.57;82.24;101725.44;3177991;22;20023;-79
2024/01/20 04:01:39;;;;;;;31.30;16.38;;;;;;;-10.60;82.25;101725.16;3177155;22;20019;-80
2024/01/20 04:02:53;;;;;;;34.13;16.77;;;;;;;-10.63;81.87;101730.81;3177384;22;20019;-80
2024/01/20 04:04:07;;;;;;;29.23;14.45;;;;;;;-10.64;81.98;101733.16;3176599;22;20268;-80
2024/01/20 04:05:22;;;;;;;21.87;14.17;;;;;;;-10.67;82.12;101733.78;3176623;22;20029;-81
2024/01/20 04:06:35;;;;;;;26.67;14.63;;;;;;;-10.66;81.74;101737.19;3176217;22;20481;-79
2024/01/20 04:07:49;;;;;;;29.47;19.20;;;;;;;-10.69;82.42;101730.22;3176862;22;20019;-80
2024/01/20 04:09:03;;;;;;;25.38;16.05;;;;;;;-10.68;82.11;101738.69;3176653;22;20034;-79
2024/01/20 04:10:18;;;;;;;29.57;17.37;;;;;;;-10.69;81.74;101734.38;3176282;22;20029;-80
2024/01/20 04:11:31;;;;;;;23.55;15.18;;;;;;;-10.70;81.76;101736.00;3176002;22;20317;-80
2024/01/20 04:12:46;;;;;;;23.47;14.77;;;;;;;-10.72;81.86;101741.66;3177550;22;20023;-80
2024/01/20 04:13:59;;;;;;;33.05;17.67;;;;;;;-10.77;81.41;101736.19;3177909;22;20023;-80
2024/01/20 04:15:15;;;;;;;37.43;18.63;;;;;;;-10.80;81.87;101740.94;3179305;22;20019;-79
2024/01/20 04:16:29;;;;;;;22.77;14.40;;;;;;;-10.83;81.57;101745.69;3180136;22;20023;-79
2024/01/20 04:17:43;;;;;;;34.00;14.63;;;;;;;-10.85;82.17;101742.13;3180500;22;20033;-79
2024/01/20 04:18:57;;;;;;;33.58;19.13;;;;;;;-10.85;81.96;101742.13;3180009;22;20019;-79
2024/01/20 04:20:11;;;;;;;28.10;17.70;;;;;;;-10.85;81.60;101740.50;3180368;22;20168;-79
2024/01/20 04:21:25;;;;;;;26.08;15.18;;;;;;;-10.82;81.72;101740.78;3180678;22;20027;-79
2024/01/20 04:22:40;;;;;;;25.47;16.73;;;;;;;-10.80;82.00;101744.34;3179666;22;20067;-79
2024/01/20 04:23:53;;;;;;;26.55;16.63;;;;;;;-10.76;81.70;101740.50;3179793;22;20023;-79
2024/01/20 04:25:08;;;;;;;24.63;16.07;;;;;;;-10.71;81.83;101746.84;3180008;22;20090;-79
2024/01/20 04:26:21;;;;;;;26.23;17.42;;;;;;;-10.69;81.74;101744.47;3179690;22;20477;-79
2024/01/20 04:27:40;;;;;;;26.73;17.60;;;;;;;-10.69;81.90;101744.47;3179935;22;20094;-79
2024/01/20 04:28:53;;;;;;;23.83;16.20;;;;;;;-10.69;81.63;101734.38;3180367;22;20046;-79
2024/01/20 04:30:09;;;;;;;30.10;17.40;;;;;;;-10.69;82.25;101754.56;3180065;22;20458;-79
2024/01/20 04:31:23;;;;;;;27.20;15.13;;;;;;;-10.70;81.62;101748.63;3179649;22;20113;-79
2024/01/20 04:32:38;;;;;;;24.52;16.45;;;;;;;-10.71;81.93;101744.34;3180185;22;20066;-79
2024/01/20 04:33:53;;;;;;;32.60;16.55;;;;;;;-10.71;81.93;101751.91;3179981;22;20020;-79
2024/01/20 04:35:08;;;;;;;27.98;15.52;;;;;;;-10.71;82.25;101751.00;3179576;22;20042;-79
2024/01/20 04:36:23;;;;;;;29.48;17.55;;;;;;;-10.73;82.20;101753.38;3180228;22;20030;-79
2024/01/20 04:37:38;;;;;;;24.73;15.68;;;;;;;-10.76;81.70;101756.50;3179474;22;20019;-79
2024/01/20 04:38:52;;;;;;;28.60;16.13;;;;;;;-10.82;81.63;101758.44;3179923;22;20022;-79
2024/01/20 04:40:07;;;;;;;27.17;17.67;;;;;;;-10.87;81.60;101759.63;3180345;22;20493;-79
2024/01/20 04:41:21;;;;;;;22.60;17.27;;;;;;;-10.94;81.48;101762.34;3180113;22;20019;-79
2024/01/20 04:42:35;;;;;;;29.58;15.80;;;;;;;-11.00;81.76;101760.09;3178982;22;20015;-79
2024/01/20 04:43:49;;;;;;;24.90;16.17;;;;;;;-11.00;81.12;101756.69;3179043;22;20023;-79
2024/01/20 04:45:04;;;;;;;24.83;15.93;;;;;;;-11.02;82.14;101759.09;3180140;22;20027;-79
2024/01/20 04:46:19;;;;;;;26.05;15.15;;;;;;;-10.99;81.38;101758.50;3180503;22;20019;-79
2024/01/20 04:47:33;;;;;;;23.98;15.43;;;;;;;-10.96;82.14;101755.38;3179983;22;20473;-79
2024/01/20 04:48:48;;;;;;;28.80;15.73;;;;;;;-10.94;81.94;101761.44;3180334;22;20019;-79
2024/01/20 04:50:01;;;;;;;28.50;17.90;;;;;;;-10.91;81.48;101761.75;3180088;22;20031;-79
2024/01/20 04:51:16;;;;;;;22.23;15.50;;;;;;;-10.92;81.63;101748.22;3179273;22;20069;-79
2024/01/20 04:52:29;;;;;;;24.83;16.70;;;;;;;-10.92;81.77;101757.44;3179958;22;20015;-79
2024/01/20 04:53:44;;;;;;;20.97;15.70;;;;;;;-10.95;82.02;101758.03;3180033;22;20417;-79
2024/01/20 04:54:57;;;;;;;28.98;15.52;;;;;;;-10.99;81.76;101754.34;3179777;22;20497;-79
2024/01/20 04:56:11;;;;;;;25.07;15.13;;;;;;;-11.00;81.54;101752.53;3180136;22;20019;-79
2024/01/20 04:57:25;;;;;;;23.73;15.18;;;;;;;-11.02;81.04;101753.13;3180306;22;20023;-79
2024/01/20 04:58:39;;;;;;;21.87;14.30;;;;;;;-11.06;81.43;101757.00;3179899;22;20071;-79
2024/01/20 04:59:53;;;;;;;26.77;14.23;;;;;;;-11.10;81.07;101759.09;3180517;22;20027;-79
2024/01/20 05:01:07;;;;;;;22.17;15.73;;;;;;;-11.13;81.29;101757.16;3180949;22;20054;-79
2024/01/20 05:02:21;;;;;;;23.17;16.08;;;;;;;-11.12;81.18;101748.88;3180671;22;20019;-79
2024/01/20 05:03:36;;;;;;;19.33;13.77;;;;;;;-11.09;81.71;101766.81;3176428;22;20022;-77
2024/01/20 05:04:50;;;;;;;28.83;15.57;;;;;;;-11.07;81.40;101751.84;3176604;22;20081;-77
2024/01/20 05:06:05;;;;;;;21.80;14.03;;;;;;;-11.09;81.21;101764.28;3175714;22;20502;-79
2024/01/20 05:07:19;;;;;;;22.27;13.75;;;;;;;-11.13;81.27;101761.31;3179121;22;20020;-79
2024/01/20 05:08:33;;;;;;;28.90;13.07;;;;;;;-11.15;81.68;101756.16;3179817;22;20092;-79
2024/01/20 05:09:47;;;;;;;21.40;15.63;;;;;;;-11.16;80.94;101759.41;3179890;22;20030;-79
2024/01/20 05:11:01;;;;;;;21.93;16.07;;;;;;;-11.19;81.39;101766.66;3179089;22;20019;-79
2024/01/20 05:12:15;;;;;;;23.45;14.98;;;;;;;-11.25;80.83;101768.63;3179933;22;20026;-79
2024/01/20 05:13:29;;;;;;;21.20;14.13;;;;;;;-11.30;81.56;101772.31;3179772;22;20095;-79
2024/01/20 05:14:42;;;;;;;19.80;13.43;;;;;;;-11.35;81.91;101765.94;3179976;22;20041;-79
2024/01/20 05:15:57;;;;;;;24.80;17.67;;;;;;;-11.39;81.66;101766.38;3179838;22;20071;-78
2024/01/20 05:17:10;;;;;;;29.33;22.02;;;;;;;-11.43;81.13;101766.09;3180196;22;20023;-78
2024/01/20 05:18:24;;;;;;;26.40;20.60;;;;;;;-11.46;81.70;101764.88;3180373;22;20094;-79
2024/01/20 05:19:39;;;;;;;21.23;13.00;;;;;;;-11.47;80.72;101768.16;3180027;22;20022;-79
2024/01/20 05:20:54;;;;;;;21.08;14.85;;;;;;;-11.47;80.89;101768.16;3178933;22;20098;-79
2024/01/20 05:22:08;;;;;;;38.95;16.92;;;;;;;-11.43;80.98;101771.13;3176696;22;20020;-79
2024/01/20 05:23:22;;;;;;;20.73;13.40;;;;;;;-11.40;81.89;101779.72;3174447;22;20362;-79
2024/01/20 05:24:35;;;;;;;19.25;13.32;;;;;;;-11.36;81.87;101771.72;3175428;22;20473;-79
2024/01/20 05:25:50;;;;;;;24.00;15.00;;;;;;;-11.34;81.33;101772.75;3177350;22;20033;-79
2024/01/20 05:27:04;;;;;;;25.15;15.45;;;;;;;-11.36;81.56;101779.28;3179399;22;20016;-80
2024/01/20 05:28:18;;;;;;;24.80;16.42;;;;;;;-11.37;81.07;101778.38;3179919;22;20049;-79
2024/01/20 05:29:32;;;;;;;26.23;15.32;;;;;;;-11.40;81.13;101784.78;3180313;22;20023;-79
2024/01/20 05:30:46;;;;;;;19.80;13.63;;;;;;;-11.42;81.68;101785.50;3179677;22;20075;-79
2024/01/20 05:32:00;;;;;;;21.98;15.68;;;;;;;-11.42;81.28;101784.59;3180432;22;20030;-79
2024/01/20 05:33:14;;;;;;;28.63;14.73;;;;;;;-11.40;80.90;101787.28;3179789;22;20115;-79
2024/01/20 05:34:28;;;;;;;24.17;16.48;;;;;;;-11.40;81.31;101792.34;3180316;22;20024;-79
2024/01/20 05:35:43;;;;;;;22.33;15.30;;;;;;;-11.41;81.25;101791.41;3180421;22;20094;-79